sensor_id;sensor_type;location;lat;lon;timestamp;temperature;humidity
65836;SHT30;52595;51.608;7.216;2022-10-15T00:00:31;13.37;99.99
65836;SHT30;52595;51.608;7.216;2022-10-15T00:02:56;13.33;99.99
65836;SHT30;52595;51.608;7.216;2022-10-15T00:05:22;13.34;99.99
65836;SHT30;52595;51.608;7.216;2022-10-15T00:07:48;13.35;99.99
65836;SHT30;52595;51.608;7.216;2022-10-15T00:10:14;13.35;99.99
65836;SHT30;52595;51.608;7.216;2022-10-15T00:12:40;13.38;99.99
65836;SHT30;52595;51.608;7.216;2022-10-15T00:15:06;13.33;99.99
65836;SHT30;52595;51.608;7.216;2022-10-15T00:17:33;13.31;99.99
65836;SHT30;52595;51.608;7.216;2022-10-15T00:19:58;13.28;99.99
65836;SHT30;52595;51.608;7.216;2022-10-15T00:22:24;13.28;99.99
65836;SHT30;52595;51.608;7.216;2022-10-15T00:24:49;13.34;99.99
65836;SHT30;52595;51.608;7.216;2022-10-15T00:27:15;13.31;99.99
65836;SHT30;52595;51.608;7.216;2022-10-15T00:29:40;13.24;99.99
65836;SHT30;52595;51.608;7.216;2022-10-15T00:32:05;13.21;99.99
65836;SHT30;52595;51.608;7.216;2022-10-15T00:34:31;13.18;99.99
65836;SHT30;52595;51.608;7.216;2022-10-15T00:36:56;13.18;99.99
65836;SHT30;52595;51.608;7.216;2022-10-15T00:39:22;13.23;99.99
65836;SHT30;52595;51.608;7.216;2022-10-15T00:41:47;13.20;99.99
65836;SHT30;52595;51.608;7.216;2022-10-15T00:46:54;13.27;99.99
65836;SHT30;52595;51.608;7.216;2022-10-15T00:51:54;13.25;99.99
65836;SHT30;52595;51.608;7.216;2022-10-15T00:54:22;13.30;99.99
65836;SHT30;52595;51.608;7.216;2022-10-15T00:56:48;13.27;99.99
65836;SHT30;52595;51.608;7.216;2022-10-15T00:59:15;13.21;99.99
65836;SHT30;52595;51.608;7.216;2022-10-15T01:01:42;13.14;99.99
65836;SHT30;52595;51.608;7.216;2022-10-15T01:04:08;13.15;99.99
65836;SHT30;52595;51.608;7.216;2022-10-15T01:06:35;13.20;99.99
65836;SHT30;52595;51.608;7.216;2022-10-15T01:09:00;13.24;99.99
65836;SHT30;52595;51.608;7.216;2022-10-15T01:22:11;13.27;99.99
65836;SHT30;52595;51.608;7.216;2022-10-15T01:28:02;13.04;99.99
65836;SHT30;52595;51.608;7.216;2022-10-15T01:30:21;13.00;99.99
65836;SHT30;52595;51.608;7.216;2022-10-15T01:33:09;13.03;99.99
65836;SHT30;52595;51.608;7.216;2022-10-15T01:35:51;13.06;99.99
65836;SHT30;52595;51.608;7.216;2022-10-15T01:40:55;13.07;99.99
65836;SHT30;52595;51.608;7.216;2022-10-15T01:43:31;13.18;99.99
65836;SHT30;52595;51.608;7.216;2022-10-15T01:46:04;13.23;99.99
65836;SHT30;52595;51.608;7.216;2022-10-15T01:48:32;13.25;99.99
65836;SHT30;52595;51.608;7.216;2022-10-15T01:51:01;13.30;99.99
65836;SHT30;52595;51.608;7.216;2022-10-15T01:53:28;13.37;99.99
65836;SHT30;52595;51.608;7.216;2022-10-15T01:56:02;13.34;99.99
65836;SHT30;52595;51.608;7.216;2022-10-15T01:58:29;13.35;99.99
65836;SHT30;52595;51.608;7.216;2022-10-15T02:00:56;13.37;99.99
65836;SHT30;52595;51.608;7.216;2022-10-15T02:03:22;13.38;99.99
65836;SHT30;52595;51.608;7.216;2022-10-15T02:06:00;13.40;99.99
65836;SHT30;52595;51.608;7.216;2022-10-15T02:08:37;13.43;99.99
65836;SHT30;52595;51.608;7.216;2022-10-15T02:11:08;13.44;99.99
65836;SHT30;52595;51.608;7.216;2022-10-15T02:19:03;13.40;99.99
65836;SHT30;52595;51.608;7.216;2022-10-15T02:24:20;13.38;99.99
65836;SHT30;52595;51.608;7.216;2022-10-15T02:26:48;13.45;99.99
65836;SHT30;52595;51.608;7.216;2022-10-15T02:29:18;13.43;99.99
65836;SHT30;52595;51.608;7.216;2022-10-15T02:31:46;13.40;99.99
65836;SHT30;52595;51.608;7.216;2022-10-15T02:34:16;13.41;99.99
65836;SHT30;52595;51.608;7.216;2022-10-15T02:36:42;13.41;99.99
65836;SHT30;52595;51.608;7.216;2022-10-15T02:39:19;13.37;99.99
65836;SHT30;52595;51.608;7.216;2022-10-15T02:41:47;13.35;99.99
65836;SHT30;52595;51.608;7.216;2022-10-15T02:44:12;13.38;99.99
65836;SHT30;52595;51.608;7.216;2022-10-15T02:46:38;13.33;99.99
65836;SHT30;52595;51.608;7.216;2022-10-15T02:49:03;13.28;99.99
65836;SHT30;52595;51.608;7.216;2022-10-15T02:51:33;13.24;99.99
65836;SHT30;52595;51.608;7.216;2022-10-15T02:53:59;13.24;99.99
65836;SHT30;52595;51.608;7.216;2022-10-15T02:56:26;13.21;99.99
65836;SHT30;52595;51.608;7.216;2022-10-15T02:58:51;13.13;99.99
65836;SHT30;52595;51.608;7.216;2022-10-15T03:01:16;13.06;99.99
65836;SHT30;52595;51.608;7.216;2022-10-15T03:03:42;13.06;99.99
65836;SHT30;52595;51.608;7.216;2022-10-15T03:06:07;13.10;99.99
65836;SHT30;52595;51.608;7.216;2022-10-15T03:08:33;13.11;99.99
65836;SHT30;52595;51.608;7.216;2022-10-15T03:10:59;13.07;99.99
65836;SHT30;52595;51.608;7.216;2022-10-15T03:13:26;13.04;99.99
65836;SHT30;52595;51.608;7.216;2022-10-15T03:15:51;13.10;99.99
65836;SHT30;52595;51.608;7.216;2022-10-15T03:18:16;13.04;99.99
65836;SHT30;52595;51.608;7.216;2022-10-15T03:20:42;13.06;99.99
65836;SHT30;52595;51.608;7.216;2022-10-15T03:23:07;13.11;99.99
65836;SHT30;52595;51.608;7.216;2022-10-15T03:25:33;13.15;99.99
65836;SHT30;52595;51.608;7.216;2022-10-15T03:27:58;13.14;99.99
65836;SHT30;52595;51.608;7.216;2022-10-15T03:30:23;13.11;99.99
65836;SHT30;52595;51.608;7.216;2022-10-15T03:32:49;13.10;99.99
65836;SHT30;52595;51.608;7.216;2022-10-15T03:35:15;13.13;99.99
65836;SHT30;52595;51.608;7.216;2022-10-15T03:37:40;13.06;99.99
65836;SHT30;52595;51.608;7.216;2022-10-15T03:40:06;13.10;99.99
65836;SHT30;52595;51.608;7.216;2022-10-15T03:42:32;13.13;99.99
65836;SHT30;52595;51.608;7.216;2022-10-15T03:44:57;13.08;99.99
65836;SHT30;52595;51.608;7.216;2022-10-15T03:47:22;13.13;99.99
65836;SHT30;52595;51.608;7.216;2022-10-15T03:49:48;13.13;99.99
65836;SHT30;52595;51.608;7.216;2022-10-15T03:52:13;13.14;99.99
65836;SHT30;52595;51.608;7.216;2022-10-15T03:54:39;13.13;99.99
65836;SHT30;52595;51.608;7.216;2022-10-15T03:57:04;13.08;99.99
65836;SHT30;52595;51.608;7.216;2022-10-15T03:59:30;13.10;99.99
65836;SHT30;52595;51.608;7.216;2022-10-15T04:01:55;13.13;99.99
65836;SHT30;52595;51.608;7.216;2022-10-15T04:04:20;13.11;99.99
65836;SHT30;52595;51.608;7.216;2022-10-15T04:06:46;13.14;99.99
65836;SHT30;52595;51.608;7.216;2022-10-15T04:09:12;13.15;99.99
65836;SHT30;52595;51.608;7.216;2022-10-15T04:11:38;13.11;99.99
65836;SHT30;52595;51.608;7.216;2022-10-15T04:14:04;13.10;99.99
65836;SHT30;52595;51.608;7.216;2022-10-15T04:16:29;13.11;99.99
65836;SHT30;52595;51.608;7.216;2022-10-15T04:18:55;13.08;99.99
65836;SHT30;52595;51.608;7.216;2022-10-15T04:21:23;13.13;99.99
65836;SHT30;52595;51.608;7.216;2022-10-15T04:23:48;13.14;99.99
65836;SHT30;52595;51.608;7.216;2022-10-15T04:26:13;13.13;99.99
65836;SHT30;52595;51.608;7.216;2022-10-15T04:28:39;13.23;99.99
65836;SHT30;52595;51.608;7.216;2022-10-15T04:31:04;13.24;99.99
65836;SHT30;52595;51.608;7.216;2022-10-15T04:33:30;13.23;99.99
65836;SHT30;52595;51.608;7.216;2022-10-15T04:38:23;13.21;99.99
65836;SHT30;52595;51.608;7.216;2022-10-15T04:40:49;13.20;99.99
65836;SHT30;52595;51.608;7.216;2022-10-15T04:43:14;13.20;99.99
65836;SHT30;52595;51.608;7.216;2022-10-15T04:45:39;13.17;99.99
65836;SHT30;52595;51.608;7.216;2022-10-15T04:48:05;13.14;99.99
65836;SHT30;52595;51.608;7.216;2022-10-15T04:50:30;13.17;99.99
65836;SHT30;52595;51.608;7.216;2022-10-15T04:52:56;13.13;99.99
65836;SHT30;52595;51.608;7.216;2022-10-15T04:55:23;13.15;99.99
65836;SHT30;52595;51.608;7.216;2022-10-15T04:57:48;13.15;99.99
65836;SHT30;52595;51.608;7.216;2022-10-15T05:00:14;13.10;99.99
65836;SHT30;52595;51.608;7.216;2022-10-15T05:02:42;13.10;99.99
65836;SHT30;52595;51.608;7.216;2022-10-15T05:05:08;13.08;99.99
65836;SHT30;52595;51.608;7.216;2022-10-15T05:07:33;13.06;99.99
65836;SHT30;52595;51.608;7.216;2022-10-15T05:09:58;12.97;99.99
65836;SHT30;52595;51.608;7.216;2022-10-15T05:12:24;12.94;99.99
65836;SHT30;52595;51.608;7.216;2022-10-15T05:14:49;12.92;99.99
65836;SHT30;52595;51.608;7.216;2022-10-15T05:17:14;12.92;99.99
65836;SHT30;52595;51.608;7.216;2022-10-15T05:19:40;12.89;99.99
65836;SHT30;52595;51.608;7.216;2022-10-15T05:22:05;12.83;99.99
65836;SHT30;52595;51.608;7.216;2022-10-15T05:24:30;12.82;99.99
65836;SHT30;52595;51.608;7.216;2022-10-15T05:26:56;12.82;99.99
65836;SHT30;52595;51.608;7.216;2022-10-15T05:29:21;12.77;99.99
65836;SHT30;52595;51.608;7.216;2022-10-15T05:31:49;12.77;99.99
65836;SHT30;52595;51.608;7.216;2022-10-15T05:34:15;12.76;99.99
65836;SHT30;52595;51.608;7.216;2022-10-15T05:36:40;12.79;99.99
65836;SHT30;52595;51.608;7.216;2022-10-15T05:39:06;12.79;99.99
65836;SHT30;52595;51.608;7.216;2022-10-15T05:41:34;12.80;99.99
65836;SHT30;52595;51.608;7.216;2022-10-15T05:44:00;12.80;99.99
65836;SHT30;52595;51.608;7.216;2022-10-15T05:46:25;12.83;99.99
65836;SHT30;52595;51.608;7.216;2022-10-15T05:48:56;12.80;99.99
65836;SHT30;52595;51.608;7.216;2022-10-15T05:51:23;12.84;99.99
65836;SHT30;52595;51.608;7.216;2022-10-15T05:53:52;12.79;99.99
65836;SHT30;52595;51.608;7.216;2022-10-15T05:56:18;12.76;99.99
65836;SHT30;52595;51.608;7.216;2022-10-15T05:58:43;12.82;99.99
65836;SHT30;52595;51.608;7.216;2022-10-15T06:01:10;12.84;99.99
65836;SHT30;52595;51.608;7.216;2022-10-15T06:03:36;12.90;99.99
65836;SHT30;52595;51.608;7.216;2022-10-15T06:06:02;12.94;99.99
65836;SHT30;52595;51.608;7.216;2022-10-15T06:08:29;13.02;99.99
65836;SHT30;52595;51.608;7.216;2022-10-15T06:11:00;13.04;99.99
65836;SHT30;52595;51.608;7.216;2022-10-15T06:13:25;13.11;99.99
65836;SHT30;52595;51.608;7.216;2022-10-15T06:15:51;13.15;99.99
65836;SHT30;52595;51.608;7.216;2022-10-15T06:18:16;13.17;99.99
65836;SHT30;52595;51.608;7.216;2022-10-15T06:20:42;13.17;99.99
65836;SHT30;52595;51.608;7.216;2022-10-15T06:23:08;13.15;99.99
65836;SHT30;52595;51.608;7.216;2022-10-15T06:25:34;13.27;99.99
65836;SHT30;52595;51.608;7.216;2022-10-15T06:28:01;13.28;99.99
65836;SHT30;52595;51.608;7.216;2022-10-15T06:30:27;13.23;99.99
65836;SHT30;52595;51.608;7.216;2022-10-15T06:32:52;13.24;99.99
65836;SHT30;52595;51.608;7.216;2022-10-15T06:35:20;13.33;99.99
65836;SHT30;52595;51.608;7.216;2022-10-15T06:37:47;13.30;99.89
65836;SHT30;52595;51.608;7.216;2022-10-15T06:40:12;13.31;99.88
65836;SHT30;52595;51.608;7.216;2022-10-15T06:42:38;13.23;99.93
65836;SHT30;52595;51.608;7.216;2022-10-15T06:45:05;13.14;99.99
65836;SHT30;52595;51.608;7.216;2022-10-15T06:47:31;13.08;99.99
65836;SHT30;52595;51.608;7.216;2022-10-15T06:49:56;13.13;99.99
65836;SHT30;52595;51.608;7.216;2022-10-15T06:52:21;13.15;99.99
65836;SHT30;52595;51.608;7.216;2022-10-15T06:54:48;13.21;99.99
65836;SHT30;52595;51.608;7.216;2022-10-15T06:57:13;13.24;99.99
65836;SHT30;52595;51.608;7.216;2022-10-15T06:59:38;13.35;99.99
65836;SHT30;52595;51.608;7.216;2022-10-15T07:02:04;13.44;99.85
65836;SHT30;52595;51.608;7.216;2022-10-15T07:04:29;13.48;99.61
65836;SHT30;52595;51.608;7.216;2022-10-15T07:06:55;13.55;99.36
65836;SHT30;52595;51.608;7.216;2022-10-15T07:09:20;13.59;99.33
65836;SHT30;52595;51.608;7.216;2022-10-15T07:11:45;13.65;99.07
65836;SHT30;52595;51.608;7.216;2022-10-15T07:14:11;13.64;98.86
65836;SHT30;52595;51.608;7.216;2022-10-15T07:16:36;13.68;99.01
65836;SHT30;52595;51.608;7.216;2022-10-15T07:19:04;13.69;98.86
65836;SHT30;52595;51.608;7.216;2022-10-15T07:21:30;13.67;98.62
65836;SHT30;52595;51.608;7.216;2022-10-15T07:24:22;13.77;98.58
65836;SHT30;52595;51.608;7.216;2022-10-15T07:26:47;13.75;98.42
65836;SHT30;52595;51.608;7.216;2022-10-15T07:29:13;13.78;98.15
65836;SHT30;52595;51.608;7.216;2022-10-15T07:31:38;13.82;98.36
65836;SHT30;52595;51.608;7.216;2022-10-15T07:34:05;13.83;98.06
65836;SHT30;52595;51.608;7.216;2022-10-15T07:36:30;13.90;98.06
65836;SHT30;52595;51.608;7.216;2022-10-15T07:38:55;14.02;97.63
65836;SHT30;52595;51.608;7.216;2022-10-15T07:41:21;14.06;97.53
65836;SHT30;52595;51.608;7.216;2022-10-15T07:43:47;14.18;97.26
65836;SHT30;52595;51.608;7.216;2022-10-15T07:46:12;14.28;97.06
65836;SHT30;52595;51.608;7.216;2022-10-15T07:48:38;14.34;97.13
65836;SHT30;52595;51.608;7.216;2022-10-15T07:51:05;14.33;96.71
65836;SHT30;52595;51.608;7.216;2022-10-15T07:53:32;14.34;96.82
65836;SHT30;52595;51.608;7.216;2022-10-15T07:56:11;14.30;97.09
65836;SHT30;52595;51.608;7.216;2022-10-15T07:58:37;14.28;97.06
65836;SHT30;52595;51.608;7.216;2022-10-15T08:01:04;14.33;96.80
65836;SHT30;52595;51.608;7.216;2022-10-15T08:03:30;14.25;96.70
65836;SHT30;52595;51.608;7.216;2022-10-15T08:05:55;14.18;96.87
65836;SHT30;52595;51.608;7.216;2022-10-15T08:08:21;14.19;97.25
65836;SHT30;52595;51.608;7.216;2022-10-15T08:10:47;14.33;96.81
65836;SHT30;52595;51.608;7.216;2022-10-15T08:13:13;14.50;96.36
65836;SHT30;52595;51.608;7.216;2022-10-15T08:15:39;14.57;95.76
65836;SHT30;52595;51.608;7.216;2022-10-15T08:18:05;14.62;95.28
65836;SHT30;52595;51.608;7.216;2022-10-15T08:20:30;14.77;95.04
65836;SHT30;52595;51.608;7.216;2022-10-15T08:22:56;14.90;94.54
65836;SHT30;52595;51.608;7.216;2022-10-15T08:25:21;14.95;94.53
65836;SHT30;52595;51.608;7.216;2022-10-15T08:27:47;14.88;94.61
65836;SHT30;52595;51.608;7.216;2022-10-15T08:30:12;14.80;94.76
65836;SHT30;52595;51.608;7.216;2022-10-15T08:32:38;14.83;94.88
65836;SHT30;52595;51.608;7.216;2022-10-15T08:35:03;14.93;94.27
65836;SHT30;52595;51.608;7.216;2022-10-15T08:37:29;15.20;93.79
65836;SHT30;52595;51.608;7.216;2022-10-15T08:39:54;15.45;92.71
65836;SHT30;52595;51.608;7.216;2022-10-15T08:42:36;15.51;92.02
65836;SHT30;52595;51.608;7.216;2022-10-15T08:45:09;15.54;91.90
65836;SHT30;52595;51.608;7.216;2022-10-15T08:47:42;15.90;91.31
65836;SHT30;52595;51.608;7.216;2022-10-15T08:50:41;16.06;90.46
65836;SHT30;52595;51.608;7.216;2022-10-15T08:53:18;16.17;89.51
65836;SHT30;52595;51.608;7.216;2022-10-15T08:55:48;16.43;89.51
65836;SHT30;52595;51.608;7.216;2022-10-15T08:58:42;16.22;88.85
65836;SHT30;52595;51.608;7.216;2022-10-15T09:06:29;16.05;89.20
65836;SHT30;52595;51.608;7.216;2022-10-15T09:14:12;16.67;86.30
65836;SHT30;52595;51.608;7.216;2022-10-15T09:16:40;16.92;85.83
65836;SHT30;52595;51.608;7.216;2022-10-15T09:19:13;16.88;85.39
65836;SHT30;52595;51.608;7.216;2022-10-15T09:21:41;16.92;84.86
65836;SHT30;52595;51.608;7.216;2022-10-15T09:24:09;16.98;84.32
65836;SHT30;52595;51.608;7.216;2022-10-15T09:37:32;17.00;84.39
65836;SHT30;52595;51.608;7.216;2022-10-15T09:43:04;17.28;83.83
65836;SHT30;52595;51.608;7.216;2022-10-15T09:45:30;17.31;83.67
65836;SHT30;52595;51.608;7.216;2022-10-15T09:47:57;17.27;83.81
65836;SHT30;52595;51.608;7.216;2022-10-15T09:50:55;17.24;83.82
65836;SHT30;52595;51.608;7.216;2022-10-15T09:53:31;17.56;82.97
65836;SHT30;52595;51.608;7.216;2022-10-15T09:56:03;17.59;81.42
65836;SHT30;52595;51.608;7.216;2022-10-15T09:58:39;17.92;81.93
65836;SHT30;52595;51.608;7.216;2022-10-15T10:01:07;18.10;79.98
65836;SHT30;52595;51.608;7.216;2022-10-15T10:03:40;17.94;80.71
65836;SHT30;52595;51.608;7.216;2022-10-15T10:06:11;18.29;80.68
65836;SHT30;52595;51.608;7.216;2022-10-15T10:08:53;18.71;79.29
65836;SHT30;52595;51.608;7.216;2022-10-15T10:11:21;18.45;78.39
65836;SHT30;52595;51.608;7.216;2022-10-15T10:16:13;18.10;78.79
65836;SHT30;52595;51.608;7.216;2022-10-15T10:18:40;18.13;78.93
65836;SHT30;52595;51.608;7.216;2022-10-15T10:21:39;18.17;79.88
65836;SHT30;52595;51.608;7.216;2022-10-15T10:26:50;18.45;78.93
65836;SHT30;52595;51.608;7.216;2022-10-15T10:29:18;18.37;79.12
65836;SHT30;52595;51.608;7.216;2022-10-15T10:31:46;18.44;78.64
65836;SHT30;52595;51.608;7.216;2022-10-15T10:34:17;18.26;78.91
65836;SHT30;52595;51.608;7.216;2022-10-15T10:36:47;18.09;79.14
65836;SHT30;52595;51.608;7.216;2022-10-15T10:39:25;18.16;79.79
65836;SHT30;52595;51.608;7.216;2022-10-15T10:41:54;17.99;79.98
65836;SHT30;52595;51.608;7.216;2022-10-15T10:44:26;18.20;79.50
65836;SHT30;52595;51.608;7.216;2022-10-15T10:47:10;18.20;79.44
65836;SHT30;52595;51.608;7.216;2022-10-15T10:49:49;18.10;80.08
65836;SHT30;52595;51.608;7.216;2022-10-15T10:57:31;17.72;82.02
65836;SHT30;52595;51.608;7.216;2022-10-15T11:00:00;17.63;82.07
65836;SHT30;52595;51.608;7.216;2022-10-15T11:02:26;17.56;82.31
65836;SHT30;52595;51.608;7.216;2022-10-15T11:04:52;17.72;82.48
65836;SHT30;52595;51.608;7.216;2022-10-15T11:07:45;17.61;83.83
65836;SHT30;52595;51.608;7.216;2022-10-15T11:10:26;17.19;87.07
65836;SHT30;52595;51.608;7.216;2022-10-15T11:13:01;17.00;87.43
65836;SHT30;52595;51.608;7.216;2022-10-15T11:15:54;16.92;87.86
65836;SHT30;52595;51.608;7.216;2022-10-15T11:21:16;16.23;92.48
65836;SHT30;52595;51.608;7.216;2022-10-15T11:24:26;16.05;94.16
65836;SHT30;52595;51.608;7.216;2022-10-15T11:30:04;16.05;95.26
65836;SHT30;52595;51.608;7.216;2022-10-15T11:46:39;16.65;92.53
65836;SHT30;52595;51.608;7.216;2022-10-15T11:49:20;16.78;92.11
65836;SHT30;52595;51.608;7.216;2022-10-15T11:52:07;16.83;91.94
65836;SHT30;52595;51.608;7.216;2022-10-15T11:57:18;17.01;90.95
65836;SHT30;52595;51.608;7.216;2022-10-15T12:00:08;17.22;90.41
65836;SHT30;52595;51.608;7.216;2022-10-15T12:02:39;17.25;90.19
65836;SHT30;52595;51.608;7.216;2022-10-15T12:07:45;17.36;90.23
65836;SHT30;52595;51.608;7.216;2022-10-15T12:15:33;17.31;89.96
65836;SHT30;52595;51.608;7.216;2022-10-15T12:20:33;17.66;88.60
65836;SHT30;52595;51.608;7.216;2022-10-15T12:23:00;17.58;88.96
65836;SHT30;52595;51.608;7.216;2022-10-15T12:28:18;17.59;89.20
65836;SHT30;52595;51.608;7.216;2022-10-15T12:31:04;17.65;88.95
65836;SHT30;52595;51.608;7.216;2022-10-15T12:36:26;17.38;90.71
65836;SHT30;52595;51.608;7.216;2022-10-15T12:38:59;17.03;92.81
65836;SHT30;52595;51.608;7.216;2022-10-15T12:41:48;16.94;93.27
65836;SHT30;52595;51.608;7.216;2022-10-15T12:44:23;16.88;94.53
65836;SHT30;52595;51.608;7.216;2022-10-15T12:46:50;16.81;95.11
65836;SHT30;52595;51.608;7.216;2022-10-15T12:51:50;17.01;95.42
65836;SHT30;52595;51.608;7.216;2022-10-15T12:57:00;17.21;93.78
65836;SHT30;52595;51.608;7.216;2022-10-15T13:04:57;17.63;92.15
65836;SHT30;52595;51.608;7.216;2022-10-15T13:07:23;18.07;90.64
65836;SHT30;52595;51.608;7.216;2022-10-15T13:09:48;18.04;90.53
65836;SHT30;52595;51.608;7.216;2022-10-15T13:12:24;18.12;90.37
65836;SHT30;52595;51.608;7.216;2022-10-15T13:15:01;18.14;89.63
65836;SHT30;52595;51.608;7.216;2022-10-15T13:17:29;18.00;90.78
65836;SHT30;52595;51.608;7.216;2022-10-15T13:20:03;17.94;89.48
65836;SHT30;52595;51.608;7.216;2022-10-15T13:22:32;17.87;89.90
65836;SHT30;52595;51.608;7.216;2022-10-15T13:24:58;17.83;90.49
65836;SHT30;52595;51.608;7.216;2022-10-15T13:27:31;17.94;89.54
65836;SHT30;52595;51.608;7.216;2022-10-15T13:30:03;18.04;89.65
65836;SHT30;52595;51.608;7.216;2022-10-15T13:32:55;18.22;88.57
65836;SHT30;52595;51.608;7.216;2022-10-15T13:35:22;18.40;87.63
65836;SHT30;52595;51.608;7.216;2022-10-15T13:37:48;18.41;87.78
65836;SHT30;52595;51.608;7.216;2022-10-15T13:40:23;18.48;88.03
65836;SHT30;52595;51.608;7.216;2022-10-15T13:43:04;18.60;87.57
65836;SHT30;52595;51.608;7.216;2022-10-15T13:45:31;18.65;87.80
65836;SHT30;52595;51.608;7.216;2022-10-15T13:47:56;18.94;86.66
65836;SHT30;52595;51.608;7.216;2022-10-15T13:50:35;19.09;85.95
65836;SHT30;52595;51.608;7.216;2022-10-15T13:55:54;19.84;83.99
65836;SHT30;52595;51.608;7.216;2022-10-15T13:58:39;20.10;82.73
65836;SHT30;52595;51.608;7.216;2022-10-15T14:03:45;20.59;81.65
65836;SHT30;52595;51.608;7.216;2022-10-15T14:08:51;21.45;78.17
65836;SHT30;52595;51.608;7.216;2022-10-15T14:11:17;21.02;79.42
65836;SHT30;52595;51.608;7.216;2022-10-15T14:13:48;20.06;81.92
65836;SHT30;52595;51.608;7.216;2022-10-15T14:16:34;19.84;82.71
65836;SHT30;52595;51.608;7.216;2022-10-15T14:21:31;19.52;83.67
65836;SHT30;52595;51.608;7.216;2022-10-15T14:24:15;19.26;84.53
65836;SHT30;52595;51.608;7.216;2022-10-15T14:26:42;19.22;85.11
65836;SHT30;52595;51.608;7.216;2022-10-15T14:29:28;18.98;85.44
65836;SHT30;52595;51.608;7.216;2022-10-15T14:31:59;18.89;86.10
65836;SHT30;52595;51.608;7.216;2022-10-15T14:37:01;18.79;86.43
65836;SHT30;52595;51.608;7.216;2022-10-15T14:39:34;18.79;86.53
65836;SHT30;52595;51.608;7.216;2022-10-15T14:42:25;18.72;86.79
65836;SHT30;52595;51.608;7.216;2022-10-15T14:44:51;18.68;86.94
65836;SHT30;52595;51.608;7.216;2022-10-15T14:49:44;18.69;87.32
65836;SHT30;52595;51.608;7.216;2022-10-15T14:52:16;18.64;87.86
65836;SHT30;52595;51.608;7.216;2022-10-15T14:57:26;18.00;93.45
65836;SHT30;52595;51.608;7.216;2022-10-15T14:59:53;17.36;95.77
65836;SHT30;52595;51.608;7.216;2022-10-15T15:02:21;17.10;97.74
65836;SHT30;52595;51.608;7.216;2022-10-15T15:07:31;16.85;99.51
65836;SHT30;52595;51.608;7.216;2022-10-15T15:09:56;16.81;99.58
65836;SHT30;52595;51.608;7.216;2022-10-15T15:12:23;16.80;99.95
65836;SHT30;52595;51.608;7.216;2022-10-15T15:14:50;16.77;99.84
65836;SHT30;52595;51.608;7.216;2022-10-15T15:17:18;16.75;99.62
65836;SHT30;52595;51.608;7.216;2022-10-15T15:19:44;16.84;99.88
65836;SHT30;52595;51.608;7.216;2022-10-15T15:22:11;16.87;99.63
65836;SHT30;52595;51.608;7.216;2022-10-15T15:24:38;16.88;99.55
65836;SHT30;52595;51.608;7.216;2022-10-15T15:27:04;16.92;99.27
65836;SHT30;52595;51.608;7.216;2022-10-15T15:29:29;16.95;99.16
65836;SHT30;52595;51.608;7.216;2022-10-15T15:31:55;16.94;99.03
65836;SHT30;52595;51.608;7.216;2022-10-15T15:34:20;16.85;99.34
65836;SHT30;52595;51.608;7.216;2022-10-15T15:36:47;16.83;99.51
65836;SHT30;52595;51.608;7.216;2022-10-15T15:39:13;16.74;99.38
65836;SHT30;52595;51.608;7.216;2022-10-15T15:41:38;16.75;99.74
65836;SHT30;52595;51.608;7.216;2022-10-15T15:44:04;16.74;99.80
65836;SHT30;52595;51.608;7.216;2022-10-15T15:46:31;16.74;99.87
65836;SHT30;52595;51.608;7.216;2022-10-15T15:48:57;16.75;99.80
65836;SHT30;52595;51.608;7.216;2022-10-15T15:51:29;16.74;99.53
65836;SHT30;52595;51.608;7.216;2022-10-15T15:53:57;16.73;99.75
65836;SHT30;52595;51.608;7.216;2022-10-15T15:56:22;16.68;99.99
65836;SHT30;52595;51.608;7.216;2022-10-15T15:58:48;16.70;99.89
65836;SHT30;52595;51.608;7.216;2022-10-15T16:01:15;16.65;99.99
65836;SHT30;52595;51.608;7.216;2022-10-15T16:03:40;16.61;99.99
65836;SHT30;52595;51.608;7.216;2022-10-15T16:06:06;16.54;99.99
65836;SHT30;52595;51.608;7.216;2022-10-15T16:08:33;16.47;99.99
65836;SHT30;52595;51.608;7.216;2022-10-15T16:11:10;16.42;99.99
65836;SHT30;52595;51.608;7.216;2022-10-15T16:13:36;16.34;99.99
65836;SHT30;52595;51.608;7.216;2022-10-15T16:16:01;16.29;99.99
65836;SHT30;52595;51.608;7.216;2022-10-15T16:18:27;16.26;99.99
65836;SHT30;52595;51.608;7.216;2022-10-15T16:20:52;16.19;99.99
65836;SHT30;52595;51.608;7.216;2022-10-15T16:23:17;16.14;99.99
65836;SHT30;52595;51.608;7.216;2022-10-15T16:25:43;16.10;99.99
65836;SHT30;52595;51.608;7.216;2022-10-15T16:28:08;16.08;99.99
65836;SHT30;52595;51.608;7.216;2022-10-15T16:30:34;16.08;99.99
65836;SHT30;52595;51.608;7.216;2022-10-15T16:32:59;16.09;99.99
65836;SHT30;52595;51.608;7.216;2022-10-15T16:35:24;16.12;99.99
65836;SHT30;52595;51.608;7.216;2022-10-15T16:37:50;16.09;99.99
65836;SHT30;52595;51.608;7.216;2022-10-15T16:40:20;16.14;99.99
65836;SHT30;52595;51.608;7.216;2022-10-15T16:42:45;16.13;99.99
65836;SHT30;52595;51.608;7.216;2022-10-15T16:45:11;16.12;99.99
65836;SHT30;52595;51.608;7.216;2022-10-15T16:47:36;16.14;99.99
65836;SHT30;52595;51.608;7.216;2022-10-15T16:50:02;16.16;99.99
65836;SHT30;52595;51.608;7.216;2022-10-15T16:52:28;16.12;99.99
65836;SHT30;52595;51.608;7.216;2022-10-15T16:54:53;16.08;99.99
65836;SHT30;52595;51.608;7.216;2022-10-15T16:57:19;16.06;99.99
65836;SHT30;52595;51.608;7.216;2022-10-15T16:59:44;16.00;99.99
65836;SHT30;52595;51.608;7.216;2022-10-15T17:02:10;15.99;99.99
65836;SHT30;52595;51.608;7.216;2022-10-15T17:04:35;15.99;99.65
65836;SHT30;52595;51.608;7.216;2022-10-15T17:07:01;15.93;99.68
65836;SHT30;52595;51.608;7.216;2022-10-15T17:09:27;15.93;99.34
65836;SHT30;52595;51.608;7.216;2022-10-15T17:11:52;15.73;97.30
65836;SHT30;52595;51.608;7.216;2022-10-15T17:14:18;15.78;91.00
65836;SHT30;52595;51.608;7.216;2022-10-15T17:16:51;15.69;90.78
65836;SHT30;52595;51.608;7.216;2022-10-15T17:19:19;15.70;86.98
65836;SHT30;52595;51.608;7.216;2022-10-15T17:21:45;15.78;86.46
65836;SHT30;52595;51.608;7.216;2022-10-15T17:24:12;15.79;85.42
65836;SHT30;52595;51.608;7.216;2022-10-15T17:26:39;15.82;85.82
65836;SHT30;52595;51.608;7.216;2022-10-15T17:29:10;15.79;84.14
65836;SHT30;52595;51.608;7.216;2022-10-15T17:31:35;15.77;84.97
65836;SHT30;52595;51.608;7.216;2022-10-15T17:34:06;15.72;84.76
65836;SHT30;52595;51.608;7.216;2022-10-15T17:36:36;15.59;86.09
65836;SHT30;52595;51.608;7.216;2022-10-15T17:39:02;15.49;85.66
65836;SHT30;52595;51.608;7.216;2022-10-15T17:41:29;15.39;85.23
65836;SHT30;52595;51.608;7.216;2022-10-15T17:43:55;15.32;86.04
65836;SHT30;52595;51.608;7.216;2022-10-15T17:46:26;15.31;86.59
65836;SHT30;52595;51.608;7.216;2022-10-15T17:48:52;15.31;84.54
65836;SHT30;52595;51.608;7.216;2022-10-15T17:51:23;15.39;84.56
65836;SHT30;52595;51.608;7.216;2022-10-15T17:53:50;15.41;83.61
65836;SHT30;52595;51.608;7.216;2022-10-15T17:56:21;15.38;83.99